Time;durP1;ratioP1;P1;durP2;ratioP2;P2;SDS_P1;SDS_P2;PMS_P1;PMS_P2;Temp;Humidity;BMP_temperature;BMP_pressure;BME280_temperature;BME280_humidity;BME280_pressure;Samples;Min_cycle;Max_cycle;Signal;HPM_P1;HPM_P2
2022/05/10 00:01:52;;;;;;;8.50;6.80;;;;;;;20.96;49.48;99726.59;4171028;28;20715;-34
2022/05/10 00:05:07;;;;;;;8.90;7.23;;;;;;;21.27;48.25;99735.53;4171728;28;20271;-35
2022/05/10 00:08:22;;;;;;;7.55;6.75;;;;;;;22.67;45.46;99734.25;4176863;28;20639;-32
2022/05/10 00:11:39;;;;;;;8.33;7.00;;;;;;;22.06;46.54;99750.78;4175803;28;20648;-34
2022/05/10 00:14:55;;;;;;;7.63;6.80;;;;;;;21.73;47.29;99741.31;4165681;28;20599;-32
2022/05/10 00:18:10;;;;;;;7.30;6.60;;;;;;;21.17;48.83;99740.66;4168602;28;20863;-33
2022/05/10 00:21:25;;;;;;;9.10;6.97;;;;;;;22.29;46.03;99728.31;4168415;28;20351;-34
2022/05/10 00:24:42;;;;;;;8.37;6.47;;;;;;;20.74;48.61;99757.84;4162837;28;20239;-31
2022/05/10 00:27:57;;;;;;;8.07;6.50;;;;;;;22.22;46.15;99735.69;4169114;28;20245;-32
2022/05/10 00:31:13;;;;;;;7.23;6.53;;;;;;;21.97;46.63;99749.50;4175643;28;20238;-31
2022/05/10 00:34:29;;;;;;;7.40;6.57;;;;;;;22.54;44.64;99747.00;4168179;28;20235;-34
2022/05/10 00:37:44;;;;;;;7.37;5.90;;;;;;;22.15;46.07;99748.53;4156908;28;20266;-35
2022/05/10 00:41:00;;;;;;;9.60;6.20;;;;;;;20.65;48.62;99757.34;4169610;28;20602;-30
2022/05/10 00:44:15;;;;;;;7.13;6.43;;;;;;;21.19;48.68;99730.44;4165669;28;20326;-32
2022/05/10 00:47:31;;;;;;;8.10;7.30;;;;;;;21.53;48.04;99733.50;4167529;28;20294;-32
2022/05/10 00:50:46;;;;;;;8.53;6.97;;;;;;;22.86;44.52;99726.75;4162055;28;20664;-35
2022/05/10 00:54:02;;;;;;;7.57;6.73;;;;;;;21.76;47.63;99738.16;4180374;28;20280;-30
2022/05/10 03:57:10;;;;;;;8.60;7.27;;;;;;;20.32;48.94;99709.09;4167006;28;20253;-33
2022/05/10 03:59:12;;;;;;;10.87;8.53;;;;;;;19.88;50.51;99714.47;4138719;28;20232;-30
2022/05/10 04:01:14;;;;;;;9.70;8.20;;;;;;;19.79;50.61;99713.91;4172998;28;20234;-30
2022/05/10 04:03:16;;;;;;;9.73;8.73;;;;;;;19.83;50.94;99704.31;4165255;28;20291;-32
2022/05/10 04:05:19;;;;;;;10.20;8.83;;;;;;;19.70;50.75;99709.84;4175196;28;20228;-31
2022/05/10 04:07:20;;;;;;;9.50;8.50;;;;;;;20.12;49.47;99696.56;4177581;28;20243;-30
2022/05/10 04:09:22;;;;;;;9.87;8.47;;;;;;;20.39;48.30;99701.72;4182418;28;20231;-30
2022/05/10 04:11:24;;;;;;;9.87;8.87;;;;;;;20.69;47.76;99712.59;4179155;28;20321;-31
2022/05/10 04:13:26;;;;;;;9.90;8.90;;;;;;;20.28;48.91;99719.50;4181170;28;20239;-31
2022/05/10 04:15:28;;;;;;;11.93;9.07;;;;;;;19.75;50.21;99720.78;4185660;28;20231;-30
2022/05/10 04:17:30;;;;;;;9.93;8.93;;;;;;;20.30;49.05;99719.25;4179110;28;20255;-31
2022/05/10 04:19:32;;;;;;;9.93;8.93;;;;;;;19.86;50.24;99720.06;4183427;28;20232;-29
2022/05/10 04:21:34;;;;;;;10.10;9.10;;;;;;;19.71;51.04;99722.28;4177511;28;20240;-30
2022/05/10 04:23:36;;;;;;;13.77;8.70;;;;;;;19.28;52.21;99720.28;4182609;28;20239;-32
2022/05/10 04:25:43;;;;;;;8.70;7.80;;;;;;;19.47;51.36;99708.53;4190433;28;20270;-30
2022/05/10 04:27:45;;;;;;;11.03;8.63;;;;;;;18.83;51.93;99718.47;4188022;28;20320;-32
2022/05/10 04:29:46;;;;;;;10.57;7.53;;;;;;;20.02;50.35;99701.66;4189001;28;20231;-32
2022/05/10 04:31:48;;;;;;;10.50;8.20;;;;;;;19.87;50.43;99705.53;4185879;28;20263;-33
2022/05/10 04:33:50;;;;;;;8.97;7.90;;;;;;;19.66;50.33;99714.03;4186180;28;20277;-32
2022/05/10 04:35:52;;;;;;;10.90;8.23;;;;;;;19.43;50.99;99720.78;4177629;28;20831;-31
2022/05/10 04:37:54;;;;;;;11.13;8.17;;;;;;;19.84;50.18;99718.63;4166425;28;20347;-32
2022/05/10 04:42:17;;;;;;;10.73;8.77;;;;;;;20.52;48.56;99727.78;4186101;28;20234;-31
2022/05/10 04:44:19;;;;;;;9.23;8.20;;;;;;;20.75;47.88;99732.47;4186220;28;20239;-31
2022/05/10 04:46:21;;;;;;;9.47;8.57;;;;;;;20.42;47.91;99747.19;4182425;28;20237;-31
2022/05/10 04:48:23;;;;;;;10.13;9.13;;;;;;;20.33;48.36;99759.31;4190098;28;20238;-33
2022/05/10 04:50:25;;;;;;;10.13;9.10;;;;;;;20.41;48.33;99759.03;4180235;28;20241;-31
2022/05/10 04:52:27;;;;;;;12.33;10.53;;;;;;;20.60;48.46;99754.44;4187813;28;20270;-31
2022/05/10 04:54:29;;;;;;;12.17;10.40;;;;;;;20.60;48.09;99760.69;4175745;28;20239;-33
2022/05/10 04:56:31;;;;;;;11.10;9.93;;;;;;;19.73;50.62;99765.22;4183734;28;20244;-30
2022/05/10 04:58:34;;;;;;;10.63;9.43;;;;;;;19.72;51.74;99761.69;4178518;28;20797;-31
2022/05/10 05:00:36;;;;;;;10.10;9.00;;;;;;;19.78;51.67;99760.81;4181195;28;20234;-31
2022/05/10 05:02:38;;;;;;;9.70;8.67;;;;;;;20.71;48.76;99751.00;4179735;28;20248;-33
2022/05/10 05:04:40;;;;;;;10.73;9.70;;;;;;;20.58;48.52;99768.22;4177060;28;20333;-30
2022/05/10 05:06:42;;;;;;;10.10;8.93;;;;;;;20.86;48.33;99766.03;4176960;28;20693;-31
2022/05/10 05:08:44;;;;;;;10.27;9.03;;;;;;;19.82;51.29;99774.69;4184618;28;20239;-34
2022/05/10 05:10:46;;;;;;;10.43;8.93;;;;;;;19.39;51.66;99773.50;4189195;28;20235;-30
2022/05/10 05:12:48;;;;;;;10.40;9.30;;;;;;;19.88;51.14;99754.94;4182889;28;20747;-30
2022/05/10 05:14:49;;;;;;;9.43;8.13;;;;;;;20.18;50.96;99752.38;4180621;28;20233;-31
2022/05/10 05:16:54;;;;;;;16.43;10.47;;;;;;;19.32;52.79;99764.63;4174845;28;20236;-33
2022/05/10 05:18:55;;;;;;;12.37;8.77;;;;;;;20.11;51.24;99759.72;4177594;28;20281;-29
2022/05/10 05:20:57;;;;;;;18.23;9.43;;;;;;;19.42;52.73;99753.34;4186326;28;20239;-31
2022/05/10 05:23:01;;;;;;;9.80;8.80;;;;;;;20.94;49.42;99753.00;4186006;28;20243;-31
2022/05/10 05:25:04;;;;;;;12.40;8.87;;;;;;;20.04;51.60;99759.78;4178303;28;20701;-33
2022/05/10 05:27:07;;;;;;;10.87;9.10;;;;;;;20.61;50.15;99762.34;4172777;28;20242;-31
2022/05/10 05:29:09;;;;;;;12.37;9.40;;;;;;;20.38;50.78;99763.00;4189223;28;20224;-30
2022/05/10 05:31:13;;;;;;;9.87;8.87;;;;;;;20.57;50.59;99766.53;4166574;28;20274;-30
2022/05/10 05:33:15;;;;;;;10.10;8.70;;;;;;;21.27;49.43;99772.56;4188344;28;20272;-30
2022/05/10 05:35:16;;;;;;;10.87;9.00;;;;;;;20.97;49.95;99776.91;4182222;28;20278;-30
2022/05/10 05:37:34;;;;;;;12.03;8.90;;;;;;;21.22;49.73;99775.97;4182327;28;20251;-31
2022/05/10 05:39:35;;;;;;;11.23;9.67;;;;;;;20.22;50.75;99788.66;4180514;28;20270;-31
2022/05/10 05:41:38;;;;;;;11.00;9.87;;;;;;;18.51;55.54;99785.66;4186555;28;20235;-32
2022/05/10 05:43:39;;;;;;;11.13;9.53;;;;;;;19.04;54.80;99759.59;4174230;28;20746;-31
2022/05/10 05:45:41;;;;;;;11.13;10.13;;;;;;;19.85;52.91;99748.09;4160049;28;20286;-33
2022/05/10 05:47:43;;;;;;;12.43;11.13;;;;;;;19.19;53.72;99764.72;4185016;28;20262;-31
2022/05/10 05:49:45;;;;;;;13.47;10.47;;;;;;;18.18;56.69;99761.47;4173890;28;20587;-31
2022/05/10 05:51:47;;;;;;;12.03;10.70;;;;;;;18.58;56.14;99743.38;4178931;28;20243;-31
2022/05/10 05:53:49;;;;;;;12.00;10.80;;;;;;;18.92;55.54;99732.50;4172262;28;20240;-30
2022/05/10 05:55:50;;;;;;;12.17;10.87;;;;;;;19.65;54.57;99732.06;4174894;28;20278;-30
2022/05/10 05:57:52;;;;;;;12.30;11.10;;;;;;;19.90;54.38;99727.72;4164237;28;20717;-31
2022/05/10 05:59:56;;;;;;;12.40;11.20;;;;;;;20.05;53.79;99725.50;4180730;28;20240;-32
2022/05/10 06:01:58;;;;;;;14.23;11.33;;;;;;;19.79;54.03;99738.19;4183787;28;20239;-33
2022/05/10 06:04:00;;;;;;;13.33;11.43;;;;;;;19.62;55.06;99735.22;4180072;28;20232;-31
2022/05/10 06:06:02;;;;;;;13.00;11.63;;;;;;;19.53;55.74;99723.00;4181482;28;20232;-32
2022/05/10 06:08:06;;;;;;;13.50;12.10;;;;;;;20.27;53.97;99719.72;4159650;28;20247;-32
2022/05/10 06:10:09;;;;;;;13.77;12.37;;;;;;;18.90;57.33;99732.72;4180463;28;20235;-31
2022/05/10 06:12:13;;;;;;;13.83;12.47;;;;;;;18.86;57.62;99733.34;4171822;28;20231;-31
2022/05/10 06:14:15;;;;;;;17.47;12.60;;;;;;;20.31;54.85;99727.13;4179599;28;20515;-33
2022/05/10 06:16:17;;;;;;;13.93;12.43;;;;;;;21.22;52.67;99738.09;4174698;28;20237;-32
2022/05/10 06:18:19;;;;;;;15.83;13.60;;;;;;;19.79;56.63;99743.59;4184762;28;20238;-32
2022/05/10 06:20:24;;;;;;;15.13;13.63;;;;;;;20.87;53.39;99744.19;4183448;28;20569;-32
2022/05/10 06:22:25;;;;;;;15.93;13.93;;;;;;;20.60;53.87;99744.50;4183725;28;20615;-32
2022/05/10 06:24:27;;;;;;;14.83;13.13;;;;;;;20.75;53.59;99754.91;4182443;28;20240;-31
2022/05/10 06:26:29;;;;;;;15.57;13.93;;;;;;;20.35;54.80;99754.53;4171120;28;20243;-32
2022/05/10 06:28:31;;;;;;;14.60;13.10;;;;;;;19.09;57.90;99760.59;4178065;28;20231;-33
2022/05/10 06:30:33;;;;;;;15.47;12.50;;;;;;;19.72;56.58;99756.28;4176854;28;20286;-33
2022/05/10 06:32:34;;;;;;;16.57;12.90;;;;;;;19.26;57.59;99757.41;4180552;28;20604;-31
2022/05/10 06:34:38;;;;;;;16.47;12.50;;;;;;;19.30;57.45;99739.75;4154051;28;20224;-31
2022/05/10 06:36:41;;;;;;;20.73;13.37;;;;;;;19.31;56.97;99755.72;4189053;28;20241;-34
2022/05/10 06:38:43;;;;;;;15.80;12.10;;;;;;;19.75;56.28;99750.47;4181453;28;20232;-31
2022/05/10 06:40:47;;;;;;;13.57;12.20;;;;;;;19.47;57.41;99750.84;4188532;28;20660;-31
2022/05/10 06:42:48;;;;;;;14.00;12.33;;;;;;;20.58;55.56;99743.91;4180812;28;20240;-32
2022/05/10 06:44:50;;;;;;;14.03;12.53;;;;;;;20.01;56.47;99753.97;4181560;28;20296;-31
2022/05/10 06:46:52;;;;;;;18.17;12.40;;;;;;;19.91;56.12;99754.50;4169313;28;20244;-32
2022/05/10 06:48:54;;;;;;;14.10;12.77;;;;;;;20.28;55.94;99751.91;4182114;28;20784;-32
2022/05/10 06:50:56;;;;;;;16.23;11.63;;;;;;;19.28;58.64;99756.13;4183959;28;20700;-30
2022/05/10 06:52:59;;;;;;;15.73;12.93;;;;;;;19.00;58.84;99751.13;4177805;28;20255;-31
2022/05/10 06:55:02;;;;;;;15.57;12.90;;;;;;;19.80;57.07;99747.94;4183779;28;20645;-31
2022/05/10 06:57:04;;;;;;;14.13;12.73;;;;;;;19.70;56.44;99761.91;4186061;28;20746;-31
2022/05/10 06:59:06;;;;;;;16.00;13.07;;;;;;;19.81;56.08;99771.19;4182076;28;20234;-31
2022/05/10 07:01:12;;;;;;;14.77;13.07;;;;;;;20.02;55.55;99778.03;4182290;28;20231;-31
2022/05/10 07:03:16;;;;;;;14.80;13.33;;;;;;;19.68;57.03;99777.47;4159633;28;20653;-31
2022/05/10 07:05:19;;;;;;;18.77;13.93;;;;;;;19.63;57.01;99768.41;4179247;28;20232;-32
2022/05/10 07:07:21;;;;;;;14.93;13.43;;;;;;;19.79;56.37;99767.88;4181861;28;20231;-31
2022/05/10 07:09:23;;;;;;;14.27;12.77;;;;;;;19.83;56.05;99771.78;4180541;28;20239;-31
2022/05/10 07:11:24;;;;;;;16.33;13.07;;;;;;;20.18;55.56;99760.47;4182305;28;20228;-32
2022/05/10 07:13:29;;;;;;;14.50;12.67;;;;;;;20.84;54.39;99771.66;4186190;28;20272;-32
2022/05/10 07:15:31;;;;;;;14.87;12.97;;;;;;;20.41;55.04;99783.34;4188952;28;20343;-34
2022/05/10 07:17:33;;;;;;;13.87;12.47;;;;;;;20.14;55.26;99801.63;4180936;28;20634;-32
2022/05/10 07:19:35;;;;;;;14.20;12.70;;;;;;;21.49;52.50;99799.94;4186514;28;20281;-33
2022/05/10 07:21:36;;;;;;;15.97;13.33;;;;;;;21.27;53.36;99807.72;4168145;28;20293;-31
2022/05/10 07:23:38;;;;;;;13.23;11.83;;;;;;;21.30;53.28;99813.50;4175106;28;20309;-32
2022/05/10 07:25:40;;;;;;;13.53;12.30;;;;;;;22.30;50.77;99813.91;4183554;28;20235;-31
2022/05/10 07:27:42;;;;;;;13.37;11.97;;;;;;;22.12;50.61;99822.94;4183153;28;20223;-31
2022/05/10 07:29:44;;;;;;;14.87;11.90;;;;;;;21.64;52.21;99827.41;4164361;28;20308;-33
2022/05/10 07:31:46;;;;;;;14.47;12.90;;;;;;;20.25;54.40;99836.00;4187950;28;20231;-31
2022/05/10 07:33:48;;;;;;;14.80;11.93;;;;;;;22.02;51.09;99822.69;4171728;28;20236;-32
2022/05/10 07:38:13;;;;;;;14.27;11.23;;;;;;;21.87;50.78;99842.91;4163522;28;20275;-33
2022/05/10 07:40:14;;;;;;;12.53;11.23;;;;;;;22.30;50.46;99843.69;4169696;28;20284;-31
2022/05/10 07:42:16;;;;;;;15.53;11.87;;;;;;;23.00;48.74;99839.31;4172086;28;20231;-32
2022/05/10 07:44:18;;;;;;;13.57;11.63;;;;;;;22.73;48.60;99849.84;4170730;28;20326;-32
2022/05/10 07:46:20;;;;;;;12.73;11.43;;;;;;;22.64;48.57;99855.63;4173920;28;20293;-33
2022/05/10 07:48:22;;;;;;;14.10;11.43;;;;;;;22.25;50.57;99860.63;4175435;28;20228;-31
2022/05/10 07:50:24;;;;;;;16.07;11.73;;;;;;;22.44;50.33;99850.56;4170829;28;20239;-31
2022/05/10 07:52:26;;;;;;;13.17;11.10;;;;;;;22.27;50.32;99846.84;4168021;28;20243;-31
2022/05/10 07:54:28;;;;;;;13.70;11.77;;;;;;;22.54;49.58;99846.41;4168686;28;20278;-31
2022/05/10 07:56:29;;;;;;;12.97;11.67;;;;;;;22.98;50.12;99830.63;4173905;28;20662;-32
2022/05/10 07:58:32;;;;;;;13.63;10.77;;;;;;;23.13;48.76;99835.50;4171733;28;20236;-31
2022/05/10 08:00:36;;;;;;;11.83;10.47;;;;;;;23.26;48.68;99831.69;4169310;28;20239;-34
2022/05/10 08:02:43;;;;;;;11.87;10.57;;;;;;;23.16;48.93;99825.00;4174107;28;20235;-31
2022/05/10 08:04:46;;;;;;;12.10;10.90;;;;;;;23.92;47.73;99824.81;4171122;28;20454;-31
2022/05/10 08:06:48;;;;;;;10.77;8.90;;;;;;;23.39;48.59;99832.22;4167787;28;20224;-31
2022/05/10 08:08:49;;;;;;;10.50;9.38;;;;;;;23.63;48.32;99836.78;4166496;28;20258;-31
2022/05/10 08:10:53;;;;;;;10.98;9.82;;;;;;;23.63;48.75;99829.44;4174575;28;20235;-32
2022/05/10 08:12:54;;;;;;;11.77;9.88;;;;;;;22.86;50.15;99830.59;4168969;28;20251;-31
2022/05/10 08:14:57;;;;;;;10.93;9.57;;;;;;;22.69;50.23;99835.09;4166960;28;20243;-30
2022/05/10 08:16:59;;;;;;;12.60;10.00;;;;;;;23.12;50.44;99821.13;4169109;28;20740;-32
2022/05/10 08:19:01;;;;;;;9.90;8.90;;;;;;;23.01;49.20;99816.56;4172342;28;20745;-33
2022/05/10 08:21:03;;;;;;;10.90;9.48;;;;;;;23.15;48.44;99819.84;4169908;28;20236;-32
2022/05/10 08:23:09;;;;;;;11.00;8.70;;;;;;;22.90;49.30;99825.53;4167622;28;20741;-31
2022/05/10 08:25:13;;;;;;;8.95;8.15;;;;;;;24.15;47.64;99814.84;4183186;28;20319;-33
2022/05/10 08:27:15;;;;;;;10.52;9.18;;;;;;;23.14;49.69;99824.41;4181058;28;20293;-33
2022/05/10 08:29:17;;;;;;;11.20;9.32;;;;;;;23.02;50.09;99816.31;4185706;28;20228;-31
2022/05/10 08:31:20;;;;;;;9.02;8.07;;;;;;;22.34;50.55;99822.38;4179888;28;20304;-30
2022/05/10 08:33:41;;;;;;;9.75;8.75;;;;;;;23.42;48.96;99806.50;4177017;28;20226;-31
2022/05/10 08:35:50;;;;;;;12.52;9.60;;;;;;;21.97;52.03;99809.84;4182572;28;20251;-32
2022/05/10 08:37:51;;;;;;;11.02;8.60;;;;;;;23.59;48.77;99795.72;4144412;28;20707;-31
2022/05/10 08:39:53;;;;;;;10.15;9.05;;;;;;;23.37;49.95;99795.56;4180152;28;20239;-30
2022/05/10 08:41:56;;;;;;;8.98;8.07;;;;;;;23.83;49.63;99796.41;4177163;28;20458;-31
2022/05/10 08:44:14;;;;;;;15.13;9.57;;;;;;;23.92;48.28;99805.78;4178628;28;20232;-31
2022/05/10 08:46:21;;;;;;;11.35;8.38;;;;;;;24.13;49.44;99800.69;4184423;28;20235;-30
2022/05/10 08:48:25;;;;;;;13.55;8.18;;;;;;;23.12;50.69;99802.16;4186806;28;20370;-31
2022/05/10 08:50:27;;;;;;;13.93;9.48;;;;;;;23.53;49.79;99805.63;4181538;28;20239;-31
2022/05/10 08:52:45;;;;;;;13.52;9.27;;;;;;;24.13;48.13;99792.53;4177986;28;20265;-32
2022/05/10 08:54:47;;;;;;;12.13;8.65;;;;;;;23.58;49.40;99794.88;4181024;28;20241;-30
2022/05/10 08:56:55;;;;;;;15.40;9.27;;;;;;;25.07;46.10;99788.16;4170523;28;20244;-32
2022/05/10 08:59:14;;;;;;;11.13;8.68;;;;;;;24.52;47.76;99808.88;4181803;28;20231;-32
2022/05/10 09:01:23;;;;;;;10.50;8.10;;;;;;;24.49;47.44;99801.22;4189937;28;20449;-30
2022/05/10 09:03:45;;;;;;;10.00;8.65;;;;;;;24.75;46.79;99804.28;4174758;28;20696;-31
2022/05/10 09:05:47;;;;;;;11.60;8.35;;;;;;;25.03;48.20;99798.69;4184577;28;20239;-31
2022/05/10 09:08:25;;;;;;;10.05;8.57;;;;;;;25.54;46.34;99801.19;4179736;28;20231;-31
2022/05/10 09:10:49;;;;;;;9.27;8.13;;;;;;;24.94;46.96;99804.84;4177880;28;20608;-31
2022/05/10 09:13:01;;;;;;;12.38;9.18;;;;;;;24.46;48.15;99807.16;4167872;28;20900;-32
2022/05/10 09:15:06;;;;;;;10.27;8.80;;;;;;;24.75;47.46;99799.69;4177090;28;20577;-32
2022/05/10 09:17:10;;;;;;;9.90;8.48;;;;;;;24.80;47.35;99790.78;4182389;28;20794;-31
2022/05/10 09:19:12;;;;;;;11.15;8.57;;;;;;;25.13;47.11;99786.28;4185318;28;20732;-32
2022/05/10 09:21:24;;;;;;;10.32;8.38;;;;;;;25.21;48.25;99788.56;4176137;28;20459;-32
2022/05/10 09:23:55;;;;;;;10.73;8.05;;;;;;;24.21;48.21;99794.88;4187595;28;20700;-31
2022/05/10 09:25:57;;;;;;;9.45;7.45;;;;;;;24.66;48.37;99788.41;4176900;28;20278;-31
2022/05/10 09:28:11;;;;;;;9.15;7.75;;;;;;;24.77;48.54;99780.44;4187045;28;20293;-32
2022/05/10 09:30:29;;;;;;;9.02;7.82;;;;;;;24.99;47.57;99775.81;4185918;28;20242;-31
2022/05/10 09:34:59;;;;;;;11.15;8.57;;;;;;;24.46;48.28;99782.69;4177633;28;20228;-35
2022/05/10 09:37:20;;;;;;;10.25;7.25;;;;;;;24.82;48.31;99772.34;4185891;28;20711;-32
2022/05/10 09:39:34;;;;;;;9.57;7.57;;;;;;;26.45;45.36;99776.81;4184739;28;20652;-31
2022/05/10 09:41:43;;;;;;;10.95;8.02;;;;;;;25.85;46.40;99781.56;4185814;28;20638;-31
2022/05/10 09:43:48;;;;;;;8.63;7.65;;;;;;;25.65;47.00;99777.59;4173714;28;20254;-33
2022/05/10 09:46:06;;;;;;;7.85;6.90;;;;;;;25.19;48.01;99764.31;4186456;28;20236;-33
2022/05/10 09:48:08;;;;;;;7.57;6.70;;;;;;;25.69;46.63;99762.34;4177470;28;20240;-32
2022/05/10 09:50:19;;;;;;;7.88;7.07;;;;;;;25.32;46.59;99770.44;4182950;28;20245;-33
2022/05/10 09:52:26;;;;;;;12.00;6.50;;;;;;;24.70;47.19;99767.00;4183827;28;20246;-32
2022/05/10 09:54:39;;;;;;;8.40;7.00;;;;;;;25.05;47.45;99758.47;4183923;28;20767;-31
2022/05/10 09:56:44;;;;;;;9.23;6.93;;;;;;;25.63;45.78;99762.56;4181796;28;20231;-31
2022/05/10 09:58:56;;;;;;;11.05;6.90;;;;;;;26.33;45.60;99760.66;4169983;28;20231;-32
2022/05/10 10:01:00;;;;;;;7.05;6.25;;;;;;;26.65;44.43;99760.56;4154532;28;20232;-33
2022/05/10 10:03:02;;;;;;;11.20;6.53;;;;;;;26.69;44.36;99763.63;4180478;28;20750;-31
2022/05/10 10:05:40;;;;;;;8.10;7.10;;;;;;;27.00;45.35;99774.63;4179443;28;20236;-33
2022/05/10 10:07:49;;;;;;;7.93;6.38;;;;;;;26.12;46.02;99765.19;4124448;28;20237;-31
2022/05/10 10:10:15;;;;;;;8.13;6.35;;;;;;;27.16;44.45;99761.84;4163430;28;20235;-35
2022/05/10 10:12:35;;;;;;;7.30;6.60;;;;;;;26.70;43.72;99773.41;4181637;28;20239;-32
2022/05/10 10:14:41;;;;;;;8.82;6.50;;;;;;;26.83;44.36;99767.47;4179426;28;20239;-35
2022/05/10 10:16:54;;;;;;;7.57;6.30;;;;;;;26.64;45.46;99769.00;4175491;28;20730;-32
2022/05/10 10:19:22;;;;;;;9.30;6.55;;;;;;;25.81;44.91;99761.38;4187249;28;20296;-32
2022/05/10 10:21:38;;;;;;;10.00;6.13;;;;;;;27.17;44.36;99755.31;4153710;28;20267;-33
2022/05/10 10:23:52;;;;;;;7.50;5.97;;;;;;;26.32;46.17;99742.69;4174467;28;20605;-31
2022/05/10 10:26:31;;;;;;;8.80;5.68;;;;;;;26.59;44.31;99736.28;4178188;28;20230;-32
2022/05/10 10:28:42;;;;;;;11.15;6.38;;;;;;;26.41;44.96;99732.91;4180689;28;20696;-32
2022/05/10 10:31:10;;;;;;;7.28;6.43;;;;;;;26.81;43.43;99736.09;4176754;28;20526;-31
2022/05/10 10:33:41;;;;;;;7.68;5.95;;;;;;;27.14;42.92;99729.38;4179668;28;20299;-31
2022/05/10 10:35:49;;;;;;;8.93;5.90;;;;;;;27.13;41.73;99735.94;4178237;28;20269;-30
2022/05/10 10:37:55;;;;;;;6.85;6.05;;;;;;;27.66;43.84;99734.94;4176778;28;21184;-30
2022/05/10 10:40:27;;;;;;;10.73;6.10;;;;;;;27.49;43.00;99743.34;4179389;28;20242;-30
2022/05/10 10:42:37;;;;;;;8.45;5.47;;;;;;;27.25;43.62;99735.69;4181870;28;20227;-31
2022/05/10 10:44:43;;;;;;;7.15;5.68;;;;;;;27.98;42.67;99721.75;4178277;28;20245;-31
2022/05/10 10:47:20;;;;;;;11.98;5.80;;;;;;;28.02;42.81;99729.41;4180469;28;20227;-31
2022/05/10 10:49:29;;;;;;;6.93;5.35;;;;;;;26.94;43.55;99727.38;4124366;28;20234;-33
2022/05/10 10:51:33;;;;;;;7.53;6.18;;;;;;;26.96;43.50;99714.31;4155399;28;20232;-31
2022/05/10 10:53:35;;;;;;;8.65;5.25;;;;;;;26.69;41.78;99709.88;4172028;28;20296;-31
2022/05/10 10:55:43;;;;;;;6.53;5.47;;;;;;;27.90;40.71;99705.91;4181886;28;20965;-31
2022/05/10 10:57:48;;;;;;;7.72;5.43;;;;;;;28.10;40.69;99717.91;4175561;28;20240;-33
2022/05/10 11:00:18;;;;;;;7.82;5.38;;;;;;;27.81;41.74;99719.31;4181156;28;20641;-31
2022/05/10 11:03:54;;;;;;;5.90;4.88;;;;;;;26.27;44.89;99675.34;4125938;27;21009;-69
2022/05/10 11:06:36;;;;;;;7.50;5.47;;;;;;;26.83;43.61;99666.53;4112881;28;20295;-69
2022/05/10 11:08:59;;;;;;;6.60;5.40;;;;;;;26.14;44.83;99664.91;4142371;28;20241;-68
2022/05/10 11:11:28;;;;;;;6.93;5.47;;;;;;;26.21;44.53;99665.47;4139829;28;20226;-68
2022/05/10 11:14:03;;;;;;;6.55;5.07;;;;;;;26.15;42.96;99658.38;4141300;28;20279;-68
2022/05/10 11:16:20;;;;;;;8.75;5.35;;;;;;;26.97;43.60;99664.09;4139729;28;20302;-69
2022/05/10 11:18:34;;;;;;;6.35;5.57;;;;;;;27.27;41.46;99657.06;4140488;28;20236;-69
2022/05/10 11:20:55;;;;;;;10.10;4.95;;;;;;;26.30;43.77;99655.72;4136412;28;20236;-69
2022/05/10 11:23:10;;;;;;;7.35;5.55;;;;;;;27.17;43.61;99654.34;4141743;28;20243;-68
2022/05/10 11:25:30;;;;;;;7.07;5.30;;;;;;;26.91;42.32;99646.13;4177890;28;20230;-69
2022/05/10 11:27:47;;;;;;;5.78;5.00;;;;;;;26.71;42.92;99649.63;4140089;28;20237;-69
2022/05/10 11:29:49;;;;;;;7.63;5.10;;;;;;;27.37;41.53;99650.81;4146680;28;20234;-68
2022/05/10 11:31:51;;;;;;;6.38;5.10;;;;;;;27.61;41.48;99657.34;4138312;28;20260;-68
2022/05/10 11:34:13;;;;;;;6.40;5.40;;;;;;;28.18;40.78;99654.50;4139850;28;20240;-69
2022/05/10 11:36:27;;;;;;;6.78;5.45;;;;;;;27.69;41.98;99660.63;4140773;28;20702;-69
2022/05/10 11:39:03;;;;;;;6.95;5.00;;;;;;;27.31;42.26;99646.44;4132201;28;20241;-69
2022/05/10 11:41:21;;;;;;;7.40;4.95;;;;;;;26.85;42.13;99650.72;4144235;28;20256;-69
2022/05/10 11:44:14;;;;;;;6.47;5.13;;;;;;;27.72;42.16;99628.13;4147659;28;20303;-69
2022/05/10 11:46:25;;;;;;;6.97;5.05;;;;;;;26.82;42.00;99636.81;4135007;28;20237;-69
2022/05/10 11:48:50;;;;;;;6.68;4.60;;;;;;;27.24;41.93;99622.94;4145609;28;20967;-69
2022/05/10 11:53:55;;;;;;;6.28;5.40;;;;;;;27.52;41.28;99628.13;4143964;28;20233;-69
2022/05/10 11:56:02;;;;;;;9.07;5.10;;;;;;;27.55;42.80;99625.66;4139514;28;20236;-69
2022/05/10 11:58:08;;;;;;;5.72;5.07;;;;;;;28.04;40.48;99613.28;4149882;28;20667;-69
2022/05/10 12:00:31;;;;;;;6.70;5.05;;;;;;;27.73;41.61;99613.34;4141693;28;20292;-69
2022/05/10 12:02:33;;;;;;;6.25;5.07;;;;;;;26.88;42.15;99605.72;4143031;28;20241;-69
2022/05/10 12:04:44;;;;;;;8.57;5.35;;;;;;;25.91;42.85;99606.19;4139286;28;20315;-68
2022/05/10 12:06:47;;;;;;;5.15;4.68;;;;;;;27.15;41.63;99583.66;4147111;28;20233;-69
2022/05/10 12:08:57;;;;;;;5.65;5.10;;;;;;;27.76;40.74;99581.94;4141577;28;20287;-69
2022/05/10 12:11:28;;;;;;;5.82;4.50;;;;;;;26.68;42.14;99571.06;4141799;28;20232;-69
2022/05/10 12:21:25;;;;;;;6.00;5.18;;;;;;;27.86;40.14;99575.63;4132218;28;20229;-69
2022/05/10 12:24:01;;;;;;;6.68;4.82;;;;;;;28.05;39.21;99584.03;4127055;28;20240;-69
2022/05/10 12:26:03;;;;;;;6.00;5.05;;;;;;;28.28;40.08;99586.13;4119642;28;20279;-69
2022/05/10 12:28:05;;;;;;;8.43;4.93;;;;;;;27.51;40.86;99572.69;4131496;28;20230;-68
2022/05/10 12:30:09;;;;;;;7.53;5.03;;;;;;;27.99;39.13;99567.66;4136913;28;20230;-69
2022/05/10 12:32:42;;;;;;;8.23;5.10;;;;;;;27.98;40.74;99560.53;4131336;28;20682;-69
2022/05/10 12:34:46;;;;;;;6.15;5.28;;;;;;;27.91;40.97;99553.75;4127911;28;20273;-69
2022/05/10 12:36:48;;;;;;;6.10;5.07;;;;;;;28.00;39.50;99558.38;4132701;28;20718;-69
2022/05/10 12:38:50;;;;;;;5.80;4.63;;;;;;;28.45;39.31;99552.94;4135198;28;20234;-69
2022/05/10 12:41:05;;;;;;;5.03;4.22;;;;;;;28.31;39.82;99558.22;4128656;28;20295;-69
2022/05/10 12:43:41;;;;;;;5.72;4.22;;;;;;;28.16;38.69;99563.78;4126488;28;20776;-69
2022/05/10 12:46:07;;;;;;;4.85;4.30;;;;;;;28.50;39.08;99557.56;4129975;28;20237;-69
2022/05/10 12:48:39;;;;;;;7.13;5.05;;;;;;;28.61;39.02;99555.56;4132337;28;20296;-69
2022/05/10 12:50:44;;;;;;;5.45;4.50;;;;;;;27.87;39.94;99549.94;4125580;28;20233;-68
2022/05/10 12:52:49;;;;;;;5.25;4.75;;;;;;;27.45;39.47;99541.03;4122873;28;20237;-68
2022/05/10 12:54:56;;;;;;;5.68;4.80;;;;;;;28.31;39.34;99535.53;4126963;28;20332;-69
2022/05/10 12:57:09;;;;;;;5.63;5.00;;;;;;;28.20;40.06;99532.03;4139674;28;20704;-70
2022/05/10 12:59:17;;;;;;;5.60;4.78;;;;;;;27.78;40.67;99522.38;4117607;28;20308;-69
2022/05/10 13:01:23;;;;;;;6.07;4.50;;;;;;;27.10;40.97;99514.63;4133690;28;20284;-69
2022/05/10 13:03:45;;;;;;;6.47;4.40;;;;;;;26.75;41.25;99502.63;4130118;28;20273;-69
2022/05/10 13:06:19;;;;;;;5.88;4.65;;;;;;;27.21;40.11;99508.88;4122263;28;20252;-69
2022/05/10 13:08:39;;;;;;;6.45;4.57;;;;;;;27.78;40.41;99506.00;4127636;28;20238;-69
2022/05/10 13:11:01;;;;;;;6.40;4.85;;;;;;;28.48;39.45;99499.63;4134891;28;20271;-69
2022/05/10 13:13:26;;;;;;;5.43;4.93;;;;;;;28.53;39.12;99507.78;4131020;28;20284;-69
2022/05/10 13:15:30;;;;;;;7.22;5.00;;;;;;;28.22;39.57;99507.97;4129656;28;20395;-69
2022/05/10 13:17:35;;;;;;;6.80;4.70;;;;;;;28.60;38.04;99516.47;4128839;28;20242;-69
2022/05/10 13:19:41;;;;;;;6.90;5.13;;;;;;;28.74;39.79;99509.25;4128031;28;20229;-69
2022/05/10 13:21:43;;;;;;;7.43;4.72;;;;;;;28.87;38.34;99504.25;4125345;28;20237;-71
2022/05/10 13:23:46;;;;;;;4.55;4.13;;;;;;;29.50;37.19;99511.56;4134376;28;20245;-69
2022/05/10 13:25:49;;;;;;;7.30;4.43;;;;;;;28.48;39.84;99518.75;4129690;28;20593;-69
2022/05/10 13:27:52;;;;;;;5.43;4.75;;;;;;;28.89;39.26;99494.63;4129435;28;20246;-69
2022/05/10 13:29:57;;;;;;;4.88;4.38;;;;;;;28.48;39.30;99485.94;4131516;28;20246;-69
2022/05/10 13:31:58;;;;;;;6.32;4.50;;;;;;;28.10;39.25;99485.59;4131444;28;20559;-69
2022/05/10 13:34:13;;;;;;;4.75;4.25;;;;;;;28.87;39.06;99485.09;4133313;28;20242;-69
2022/05/10 13:36:19;;;;;;;6.05;4.10;;;;;;;28.82;38.71;99488.69;4126039;28;20657;-69